Direito Ao Destino — CUOC — position and weather

sailwx.info

Track history (hours):
 
Tides and Currents Weather Stations Pressure Air Temp Water Temp Dewpoint Dewpoint Depression Visibility Wind Speed Wind Dir Waves Ship Positions

Direito Ao Destino

Last reported at 2017-Nov-18 06:51 UTC. Time now 2017-Nov-19 19:55 UTC.
Position N 38°26' W 009°07'.

Length 16 m.

Type: Fishing. MMSI: 263412560.

Date/timePositionNaut miles runAvg speedWind from/ knotsBaromVisibWave heightAir tempDewpointWater temp
2017-Nov-18 06:51N 38°26' W 009°07'2 6.0
2017-Nov-18 06:30N 38°24' W 009°07'5 9.0
2017-Nov-18 06:00N 38°20' W 009°09'4 8.8
2017-Nov-18 05:30N 38°16' W 009°11'2 4.9
2017-Nov-18 05:00N 38°17' W 009°14'3 4.4
2017-Nov-18 04:24N 38°16' W 009°17'1 1.4
2017-Nov-18 03:59N 38°16' W 009°17'0 0.6
2017-Nov-18 03:30N 38°16' W 009°17'0 0.5
2017-Nov-18 02:50N 38°16' W 009°16'0 0.9
2017-Nov-18 02:30N 38°16' W 009°16'0 0.9
2017-Nov-18 01:59N 38°16' W 009°15'0 1.0
2017-Nov-18 01:30N 38°17' W 009°15'1 1.0
2017-Nov-18 01:00N 38°17' W 009°14'1 1.0
2017-Nov-18 00:30N 38°16' W 009°13'1 1.0
2017-Nov-18 00:00N 38°16' W 009°13'0 0.9
2017-Nov-17 23:30N 38°16' W 009°12'0 0.6
2017-Nov-17 22:56N 38°16' W 009°12'1 2.4
2017-Nov-17 22:27N 38°17' W 009°13'3 6.4
2017-Nov-17 21:58N 38°19' W 009°16'2 4.3
2017-Nov-17 21:29N 38°20' W 009°18'3 3.1
2017-Nov-17 20:40N 38°18' W 009°15'0 0.8
2017-Nov-17 20:28N 38°19' W 009°16'0 0.6
2017-Nov-17 20:00N 38°19' W 009°16'0 1.0
2017-Nov-17 19:30N 38°19' W 009°16'0 1.0
2017-Nov-17 19:00N 38°19' W 009°17'1 1.2
2017-Nov-17 18:30N 38°20' W 009°17'0 0.9
2017-Nov-17 18:00N 38°20' W 009°18'0 0.6
2017-Nov-17 17:30N 38°20' W 009°18'0 0.6
2017-Nov-17 17:00N 38°21' W 009°18'0 0.6
2017-Nov-17 16:30N 38°21' W 009°18'0 0.3
2017-Nov-17 16:00N 38°21' W 009°18'2 3.1
2017-Nov-17 15:30N 38°22' W 009°16'5 9.3
2017-Nov-17 15:00N 38°24' W 009°11'4 8.3
2017-Nov-17 14:30N 38°26' W 009°07'0 0.0
2017-Nov-16 10:16N 38°26' W 009°07'0 0.0
2017-Nov-16 10:00N 38°26' W 009°07'0 0.0
2017-Nov-16 09:30N 38°26' W 009°07'0 0.2
2017-Nov-16 09:00N 38°26' W 009°07'0 0.1
2017-Nov-16 08:30N 38°26' W 009°07'2 3.6
2017-Nov-16 08:00N 38°25' W 009°07'9 8.2
2017-Nov-16 06:52N 38°16' W 009°12'2 4.7
2017-Nov-16 06:30N 38°17' W 009°14'2 4.0
2017-Nov-16 06:00N 38°16' W 009°16'1 1.3
2017-Nov-16 05:29N 38°16' W 009°17'1 0.6
2017-Nov-16 04:16N 38°16' W 009°16'0 0.9
2017-Nov-16 03:58N 38°16' W 009°16'0 1.0
2017-Nov-16 03:30N 38°16' W 009°15'1 1.0
2017-Nov-16 03:00N 38°16' W 009°15'0 1.0
2017-Nov-16 02:30N 38°16' W 009°14'1 1.0
2017-Nov-16 01:41N 38°16' W 009°13'0 1.0
2017-Nov-16 01:30N 38°16' W 009°13'0 0.8
2017-Nov-16 01:00N 38°16' W 009°12'0 0.6
2017-Nov-16 00:30N 38°16' W 009°12'0 0.5
2017-Nov-16 00:00N 38°16' W 009°12'0 0.5
2017-Nov-15 23:30N 38°16' W 009°12'3 6.1
2017-Nov-15 23:00N 38°18' W 009°15'2 4.9
2017-Nov-15 22:30N 38°20' W 009°17'1 2.4
2017-Nov-15 22:00N 38°21' W 009°17'3 5.9
2017-Nov-15 21:30N 38°18' W 009°15'0 0.6
2017-Nov-15 21:00N 38°19' W 009°15'1 0.9
2017-Nov-15 20:00N 38°19' W 009°16'1 1.3
2017-Nov-15 19:30N 38°20' W 009°17'1 1.0
2017-Nov-15 19:00N 38°20' W 009°17'0 0.9
2017-Nov-15 18:30N 38°20' W 009°18'0 0.6
2017-Nov-15 18:00N 38°21' W 009°18'0 0.7
2017-Nov-15 17:30N 38°21' W 009°18'0 0.6
2017-Nov-15 16:42N 38°21' W 009°17'0 0.5
2017-Nov-15 16:27N 38°21' W 009°18'2 4.3
2017-Nov-15 15:57N 38°22' W 009°15'8 8.9
2017-Nov-15 15:01N 38°26' W 009°06'0 0.0
2017-Nov-14 08:22N 38°26' W 009°07'9 6.9
2017-Nov-14 07:03N 38°18' W 009°11'1 8.1
2017-Nov-14 06:53N 38°16' W 009°11'2 0.3
2017-Nov-14 01:57N 38°16' W 009°13'1 1.1
2017-Nov-14 01:30N 38°16' W 009°12'0 1.0
2017-Nov-14 01:00N 38°16' W 009°12'0 0.8
2017-Nov-14 00:30N 38°16' W 009°12'1 0.8
2017-Nov-13 23:46N 38°16' W 009°12'2 8.5
2017-Nov-13 23:30N 38°18' W 009°14'3 0.1
2017-Nov-12 06:16N 38°19' W 009°10'3 0.4
2017-Nov-11 23:31N 38°16' W 009°12'0 0.6
2017-Nov-11 23:08N 38°16' W 009°11'0 0.8
2017-Nov-11 22:50N 38°16' W 009°11'2 6.5
2017-Nov-11 22:30N 38°17' W 009°13'4 5.7
2017-Nov-11 21:45N 38°20' W 009°17'3 2.7
2017-Nov-11 20:43N 38°18' W 009°15'0 0.8
2017-Nov-11 20:30N 38°18' W 009°15'0 0.9
2017-Nov-11 20:00N 38°18' W 009°15'1 1.1
2017-Nov-11 19:30N 38°19' W 009°16'1 1.1
2017-Nov-11 19:00N 38°19' W 009°16'1 1.1
2017-Nov-11 18:30N 38°19' W 009°17'0 0.9
2017-Nov-11 18:00N 38°20' W 009°17'0 0.4
2017-Nov-11 17:30N 38°20' W 009°18'0 0.7
2017-Nov-11 17:00N 38°20' W 009°17'0 0.7
2017-Nov-11 16:30N 38°20' W 009°17'0 0.3
2017-Nov-11 15:59N 38°20' W 009°17'2 3.3
2017-Nov-11 15:30N 38°22' W 009°16'4 8.7
2017-Nov-11 15:00N 38°24' W 009°11'4 8.3
2017-Nov-11 14:30N 38°26' W 009°06'0 0.0
2017-Nov-10 07:50N 38°26' W 009°07'11 8.4
2017-Nov-10 06:34N 38°16' W 009°11'1 4.5
2017-Nov-10 06:19N 38°16' W 009°12'2 4.1
2017-Nov-10 05:46N 38°17' W 009°15'1 4.3
2017-Nov-10 05:29N 38°16' W 009°16'1 0.9
2017-Nov-10 04:48N 38°16' W 009°17'0 0.6
2017-Nov-10 04:27N 38°16' W 009°17'0 0.6
2017-Nov-10 03:56N 38°16' W 009°17'0 0.7
2017-Nov-10 03:29N 38°16' W 009°16'4 0.4
2017-Nov-09 18:16N 38°20' W 009°18'  
Track history (hours):
 
Tides and Currents Weather Stations Pressure Air Temp Water Temp Dewpoint Dewpoint Depression Visibility Wind Speed Wind Dir Waves Ship Positions

Direito Ao Destino

Last reported at 2017-Nov-18 06:51 UTC. Time now 2017-Nov-19 19:55 UTC.
Position N 38°26' W 009°07'.

Length 16 m.

Type: Fishing. MMSI: 263412560.

Date/timePositionNaut miles runAvg speedWind from/ knotsBaromVisibWave heightAir tempDewpointWater temp
2017-Nov-18 06:51N 38°26' W 009°07'2 6.0
2017-Nov-18 06:30N 38°24' W 009°07'5 9.0
2017-Nov-18 06:00N 38°20' W 009°09'4 8.8
2017-Nov-18 05:30N 38°16' W 009°11'2 4.9
2017-Nov-18 05:00N 38°17' W 009°14'3 4.4
2017-Nov-18 04:24N 38°16' W 009°17'1 1.4
2017-Nov-18 03:59N 38°16' W 009°17'0 0.6
2017-Nov-18 03:30N 38°16' W 009°17'0 0.5
2017-Nov-18 02:50N 38°16' W 009°16'0 0.9
2017-Nov-18 02:30N 38°16' W 009°16'0 0.9
2017-Nov-18 01:59N 38°16' W 009°15'0 1.0
2017-Nov-18 01:30N 38°17' W 009°15'1 1.0
2017-Nov-18 01:00N 38°17' W 009°14'1 1.0
2017-Nov-18 00:30N 38°16' W 009°13'1 1.0
2017-Nov-18 00:00N 38°16' W 009°13'0 0.9
2017-Nov-17 23:30N 38°16' W 009°12'0 0.6
2017-Nov-17 22:56N 38°16' W 009°12'1 2.4
2017-Nov-17 22:27N 38°17' W 009°13'3 6.4
2017-Nov-17 21:58N 38°19' W 009°16'2 4.3
2017-Nov-17 21:29N 38°20' W 009°18'3 3.1
2017-Nov-17 20:40N 38°18' W 009°15'0 0.8
2017-Nov-17 20:28N 38°19' W 009°16'0 0.6
2017-Nov-17 20:00N 38°19' W 009°16'0 1.0
2017-Nov-17 19:30N 38°19' W 009°16'0 1.0
2017-Nov-17 19:00N 38°19' W 009°17'1 1.2
2017-Nov-17 18:30N 38°20' W 009°17'0 0.9
2017-Nov-17 18:00N 38°20' W 009°18'0 0.6
2017-Nov-17 17:30N 38°20' W 009°18'0 0.6
2017-Nov-17 17:00N 38°21' W 009°18'0 0.6
2017-Nov-17 16:30N 38°21' W 009°18'0 0.3
2017-Nov-17 16:00N 38°21' W 009°18'2 3.1
2017-Nov-17 15:30N 38°22' W 009°16'5 9.3
2017-Nov-17 15:00N 38°24' W 009°11'4 8.3
2017-Nov-17 14:30N 38°26' W 009°07'0 0.0
2017-Nov-16 10:16N 38°26' W 009°07'0 0.0
2017-Nov-16 10:00N 38°26' W 009°07'0 0.0
2017-Nov-16 09:30N 38°26' W 009°07'0 0.2
2017-Nov-16 09:00N 38°26' W 009°07'0 0.1
2017-Nov-16 08:30N 38°26' W 009°07'2 3.6
2017-Nov-16 08:00N 38°25' W 009°07'9 8.2
2017-Nov-16 06:52N 38°16' W 009°12'2 4.7
2017-Nov-16 06:30N 38°17' W 009°14'2 4.0
2017-Nov-16 06:00N 38°16' W 009°16'1 1.3
2017-Nov-16 05:29N 38°16' W 009°17'1 0.6
2017-Nov-16 04:16N 38°16' W 009°16'0 0.9
2017-Nov-16 03:58N 38°16' W 009°16'0 1.0
2017-Nov-16 03:30N 38°16' W 009°15'1 1.0
2017-Nov-16 03:00N 38°16' W 009°15'0 1.0
2017-Nov-16 02:30N 38°16' W 009°14'1 1.0
2017-Nov-16 01:41N 38°16' W 009°13'0 1.0
2017-Nov-16 01:30N 38°16' W 009°13'0 0.8
2017-Nov-16 01:00N 38°16' W 009°12'0 0.6
2017-Nov-16 00:30N 38°16' W 009°12'0 0.5
2017-Nov-16 00:00N 38°16' W 009°12'0 0.5
2017-Nov-15 23:30N 38°16' W 009°12'3 6.1
2017-Nov-15 23:00N 38°18' W 009°15'2 4.9
2017-Nov-15 22:30N 38°20' W 009°17'1 2.4
2017-Nov-15 22:00N 38°21' W 009°17'3 5.9
2017-Nov-15 21:30N 38°18' W 009°15'0 0.6
2017-Nov-15 21:00N 38°19' W 009°15'1 0.9
2017-Nov-15 20:00N 38°19' W 009°16'1 1.3
2017-Nov-15 19:30N 38°20' W 009°17'1 1.0
2017-Nov-15 19:00N 38°20' W 009°17'0 0.9
2017-Nov-15 18:30N 38°20' W 009°18'0 0.6
2017-Nov-15 18:00N 38°21' W 009°18'0 0.7
2017-Nov-15 17:30N 38°21' W 009°18'0 0.6
2017-Nov-15 16:42N 38°21' W 009°17'0 0.5
2017-Nov-15 16:27N 38°21' W 009°18'2 4.3
2017-Nov-15 15:57N 38°22' W 009°15'8 8.9
2017-Nov-15 15:01N 38°26' W 009°06'0 0.0
2017-Nov-14 08:22N 38°26' W 009°07'9 6.9
2017-Nov-14 07:03N 38°18' W 009°11'1 8.1
2017-Nov-14 06:53N 38°16' W 009°11'2 0.3
2017-Nov-14 01:57N 38°16' W 009°13'1 1.1
2017-Nov-14 01:30N 38°16' W 009°12'0 1.0
2017-Nov-14 01:00N 38°16' W 009°12'0 0.8
2017-Nov-14 00:30N 38°16' W 009°12'1 0.8
2017-Nov-13 23:46N 38°16' W 009°12'2 8.5
2017-Nov-13 23:30N 38°18' W 009°14'3 0.1
2017-Nov-12 06:16N 38°19' W 009°10'3 0.4
2017-Nov-11 23:31N 38°16' W 009°12'0 0.6
2017-Nov-11 23:08N 38°16' W 009°11'0 0.8
2017-Nov-11 22:50N 38°16' W 009°11'2 6.5
2017-Nov-11 22:30N 38°17' W 009°13'4 5.7
2017-Nov-11 21:45N 38°20' W 009°17'3 2.7
2017-Nov-11 20:43N 38°18' W 009°15'0 0.8
2017-Nov-11 20:30N 38°18' W 009°15'0 0.9
2017-Nov-11 20:00N 38°18' W 009°15'1 1.1
2017-Nov-11 19:30N 38°19' W 009°16'1 1.1
2017-Nov-11 19:00N 38°19' W 009°16'1 1.1
2017-Nov-11 18:30N 38°19' W 009°17'0 0.9
2017-Nov-11 18:00N 38°20' W 009°17'0 0.4
2017-Nov-11 17:30N 38°20' W 009°18'0 0.7
2017-Nov-11 17:00N 38°20' W 009°17'0 0.7
2017-Nov-11 16:30N 38°20' W 009°17'0 0.3
2017-Nov-11 15:59N 38°20' W 009°17'2 3.3
2017-Nov-11 15:30N 38°22' W 009°16'4 8.7
2017-Nov-11 15:00N 38°24' W 009°11'4 8.3
2017-Nov-11 14:30N 38°26' W 009°06'0 0.0
2017-Nov-10 07:50N 38°26' W 009°07'11 8.4
2017-Nov-10 06:34N 38°16' W 009°11'1 4.5
2017-Nov-10 06:19N 38°16' W 009°12'2 4.1
2017-Nov-10 05:46N 38°17' W 009°15'1 4.3
2017-Nov-10 05:29N 38°16' W 009°16'1 0.9
2017-Nov-10 04:48N 38°16' W 009°17'0 0.6
2017-Nov-10 04:27N 38°16' W 009°17'0 0.6
2017-Nov-10 03:56N 38°16' W 009°17'0 0.7
2017-Nov-10 03:29N 38°16' W 009°16'4 0.4
2017-Nov-09 18:16N 38°20' W 009°18'  

Dump ship's entire track history